Rickenbacker International (LCK)

 

Airport Diagram
Current Weather/Forecast (IFR Conditions)
METAR KLCK 252255Z AUTO 06006KT 5SM BR OVC008 00/M01 A2985 RMK AO2 T10021010
TAF KLCK 252229Z 2522/2618 07008KT 4SM BR OVC007 FM260000 07009KT 4SM -RA BR OVC007 FM260500 09005KT 4SM BR OVC007 FM261500 23009KT P6SM OVC010

Airport Information

All Charts
General
Chart Name View
AIRPORT DIAGRAM
AIRPORT DIAGRAM
ALTERNATE MINIMUMS
ALTERNATE MINIMUMS

Departures
Chart Name Download
LOCKBOURNE FIVE
LOCKBOURNE FIVE

Arrivals
Chart Name Download
BREMN FIVE
BREMN FIVE, CONT.1
GAILL THREE (RNAV)
GUNNE FOUR
GUNNE FOUR, CONT.1
BREMN FIVE
BREMN FIVE, CONT.1
GAILL THREE (RNAV)
GUNNE FOUR
GUNNE FOUR, CONT.1

Approaches
Chart Name Download
ILS OR LOC RWY 05L
ILS OR LOC RWY 05R
ILS OR LOC RWY 23L
ILS RWY 05R (SA CAT I)
ILS RWY 05R (CAT II)
RNAV (GPS) RWY 05L
RNAV (GPS) RWY 05R
RNAV (GPS) RWY 23L
RNAV (GPS) RWY 23R
ILS OR LOC RWY 05L
ILS OR LOC RWY 05R
ILS OR LOC RWY 23L
ILS RWY 05R (SA CAT I)
ILS RWY 05R (CAT II)
RNAV (GPS) RWY 05L
RNAV (GPS) RWY 05R
RNAV (GPS) RWY 23L
RNAV (GPS) RWY 23R


Airport Statistics
Departures Arrivals Local
All Collected Stats since June 2016: 201 181 5
2021 Stats: 17 21 0
January Stats: 17 21 0

Inbound Traffic (Arrivals) - 0

No inbound traffic.


Outbound Traffic (Departures) - 0

No outbound traffic.


Local Traffic (Pattern) - 0

No local traffic.